sensor_id;sensor_type;location;lat;lon;timestamp;temperature;humidity
8338;DHT22;4206;48.634;9.516;2023-08-24T00:02:02;18.20;99.90
8338;DHT22;4206;48.634;9.516;2023-08-24T00:04:29;18.30;99.90
8338;DHT22;4206;48.634;9.516;2023-08-24T00:07:00;18.90;99.90
8338;DHT22;4206;48.634;9.516;2023-08-24T00:09:32;18.80;99.90
8338;DHT22;4206;48.634;9.516;2023-08-24T00:12:13;18.80;99.90
8338;DHT22;4206;48.634;9.516;2023-08-24T00:14:40;18.70;99.90
8338;DHT22;4206;48.634;9.516;2023-08-24T00:17:07;18.10;99.90
8338;DHT22;4206;48.634;9.516;2023-08-24T00:19:34;18.70;99.90
8338;DHT22;4206;48.634;9.516;2023-08-24T00:22:01;19.20;99.90
8338;DHT22;4206;48.634;9.516;2023-08-24T00:24:28;17.90;99.90
8338;DHT22;4206;48.634;9.516;2023-08-24T00:26:55;18.60;99.90
8338;DHT22;4206;48.634;9.516;2023-08-24T00:29:22;18.50;99.90
8338;DHT22;4206;48.634;9.516;2023-08-24T00:31:49;18.30;99.90
8338;DHT22;4206;48.634;9.516;2023-08-24T00:34:17;17.70;99.90
8338;DHT22;4206;48.634;9.516;2023-08-24T00:36:43;17.20;99.90
8338;DHT22;4206;48.634;9.516;2023-08-24T00:39:11;16.50;99.90
8338;DHT22;4206;48.634;9.516;2023-08-24T00:41:38;18.10;99.90
8338;DHT22;4206;48.634;9.516;2023-08-24T00:44:09;18.20;99.90
8338;DHT22;4206;48.634;9.516;2023-08-24T00:46:36;17.90;99.90
8338;DHT22;4206;48.634;9.516;2023-08-24T00:49:03;18.50;99.90
8338;DHT22;4206;48.634;9.516;2023-08-24T00:51:30;18.30;99.90
8338;DHT22;4206;48.634;9.516;2023-08-24T00:53:57;18.70;99.90
8338;DHT22;4206;48.634;9.516;2023-08-24T00:56:24;18.00;99.90
8338;DHT22;4206;48.634;9.516;2023-08-24T00:58:52;17.90;99.90
8338;DHT22;4206;48.634;9.516;2023-08-24T01:01:20;18.30;99.90
8338;DHT22;4206;48.634;9.516;2023-08-24T01:03:47;18.30;99.90
8338;DHT22;4206;48.634;9.516;2023-08-24T01:06:14;18.10;99.90
8338;DHT22;4206;48.634;9.516;2023-08-24T01:08:42;18.20;99.90
8338;DHT22;4206;48.634;9.516;2023-08-24T01:16:45;16.80;99.90
8338;DHT22;4206;48.634;9.516;2023-08-24T01:22:23;17.50;99.90
8338;DHT22;4206;48.634;9.516;2023-08-24T01:27:38;17.00;99.90
8338;DHT22;4206;48.634;9.516;2023-08-24T01:30:06;16.90;99.90
8338;DHT22;4206;48.634;9.516;2023-08-24T01:32:35;19.10;99.90
8338;DHT22;4206;48.634;9.516;2023-08-24T01:35:05;19.00;99.90
8338;DHT22;4206;48.634;9.516;2023-08-24T01:37:34;18.80;99.90
8338;DHT22;4206;48.634;9.516;2023-08-24T01:40:31;17.70;99.90
8338;DHT22;4206;48.634;9.516;2023-08-24T01:43:04;18.70;99.90
8338;DHT22;4206;48.634;9.516;2023-08-24T01:45:33;16.90;99.90
8338;DHT22;4206;48.634;9.516;2023-08-24T01:48:02;18.60;99.90
8338;DHT22;4206;48.634;9.516;2023-08-24T01:50:31;16.30;99.90
8338;DHT22;4206;48.634;9.516;2023-08-24T01:52:59;18.50;99.90
8338;DHT22;4206;48.634;9.516;2023-08-24T01:55:26;16.60;99.90
8338;DHT22;4206;48.634;9.516;2023-08-24T01:57:55;17.60;99.90
8338;DHT22;4206;48.634;9.516;2023-08-24T02:00:22;17.20;99.90
8338;DHT22;4206;48.634;9.516;2023-08-24T02:02:50;17.80;99.90
8338;DHT22;4206;48.634;9.516;2023-08-24T02:05:17;16.10;99.90
8338;DHT22;4206;48.634;9.516;2023-08-24T02:07:44;15.40;99.90
8338;DHT22;4206;48.634;9.516;2023-08-24T02:10:11;17.20;99.90
8338;DHT22;4206;48.634;9.516;2023-08-24T02:12:38;17.00;99.90
8338;DHT22;4206;48.634;9.516;2023-08-24T02:15:05;16.90;99.90
8338;DHT22;4206;48.634;9.516;2023-08-24T02:17:32;16.60;99.90
8338;DHT22;4206;48.634;9.516;2023-08-24T02:20:00;17.20;99.90
8338;DHT22;4206;48.634;9.516;2023-08-24T02:22:29;16.90;99.90
8338;DHT22;4206;48.634;9.516;2023-08-24T02:24:57;17.70;99.90
8338;DHT22;4206;48.634;9.516;2023-08-24T02:27:24;15.10;99.90
8338;DHT22;4206;48.634;9.516;2023-08-24T02:29:51;17.50;99.90
8338;DHT22;4206;48.634;9.516;2023-08-24T02:32:18;17.50;99.90
8338;DHT22;4206;48.634;9.516;2023-08-24T02:34:45;17.60;99.90
8338;DHT22;4206;48.634;9.516;2023-08-24T02:37:14;17.20;99.90
8338;DHT22;4206;48.634;9.516;2023-08-24T02:39:55;17.50;99.90
8338;DHT22;4206;48.634;9.516;2023-08-24T02:42:22;14.90;99.90
8338;DHT22;4206;48.634;9.516;2023-08-24T02:44:49;18.50;99.90
8338;DHT22;4206;48.634;9.516;2023-08-24T02:47:16;16.50;99.90
8338;DHT22;4206;48.634;9.516;2023-08-24T02:49:43;16.60;99.90
8338;DHT22;4206;48.634;9.516;2023-08-24T02:52:10;17.30;99.90
8338;DHT22;4206;48.634;9.516;2023-08-24T02:54:37;16.80;99.90
8338;DHT22;4206;48.634;9.516;2023-08-24T02:57:04;16.70;99.90
8338;DHT22;4206;48.634;9.516;2023-08-24T02:59:31;15.00;99.90
8338;DHT22;4206;48.634;9.516;2023-08-24T03:01:58;18.90;99.90
8338;DHT22;4206;48.634;9.516;2023-08-24T03:04:26;16.60;99.90
8338;DHT22;4206;48.634;9.516;2023-08-24T03:06:53;17.40;99.90
8338;DHT22;4206;48.634;9.516;2023-08-24T03:09:20;17.30;99.90
8338;DHT22;4206;48.634;9.516;2023-08-24T03:11:47;16.40;99.90
8338;DHT22;4206;48.634;9.516;2023-08-24T03:14:14;17.80;99.90
8338;DHT22;4206;48.634;9.516;2023-08-24T03:16:41;17.60;99.90
8338;DHT22;4206;48.634;9.516;2023-08-24T03:19:08;16.90;99.90
8338;DHT22;4206;48.634;9.516;2023-08-24T03:21:35;17.90;99.90
8338;DHT22;4206;48.634;9.516;2023-08-24T03:24:02;16.60;99.90
8338;DHT22;4206;48.634;9.516;2023-08-24T03:26:31;16.90;99.90
8338;DHT22;4206;48.634;9.516;2023-08-24T03:28:58;16.90;99.90
8338;DHT22;4206;48.634;9.516;2023-08-24T03:31:25;16.60;99.90
8338;DHT22;4206;48.634;9.516;2023-08-24T03:33:53;17.30;99.90
8338;DHT22;4206;48.634;9.516;2023-08-24T03:36:20;16.60;99.90
8338;DHT22;4206;48.634;9.516;2023-08-24T03:38:47;15.40;99.90
8338;DHT22;4206;48.634;9.516;2023-08-24T03:41:14;16.40;99.90
8338;DHT22;4206;48.634;9.516;2023-08-24T03:43:41;15.40;99.90
8338;DHT22;4206;48.634;9.516;2023-08-24T03:46:08;14.90;99.90
8338;DHT22;4206;48.634;9.516;2023-08-24T03:48:35;17.00;99.90
8338;DHT22;4206;48.634;9.516;2023-08-24T03:51:02;16.50;99.90
8338;DHT22;4206;48.634;9.516;2023-08-24T03:53:30;17.10;99.90
8338;DHT22;4206;48.634;9.516;2023-08-24T03:55:56;17.30;99.90
8338;DHT22;4206;48.634;9.516;2023-08-24T03:58:23;17.10;99.90
8338;DHT22;4206;48.634;9.516;2023-08-24T04:00:50;17.30;99.90
8338;DHT22;4206;48.634;9.516;2023-08-24T04:03:17;17.40;99.90
8338;DHT22;4206;48.634;9.516;2023-08-24T04:05:45;17.40;99.90
8338;DHT22;4206;48.634;9.516;2023-08-24T04:08:12;17.20;99.90
8338;DHT22;4206;48.634;9.516;2023-08-24T04:10:39;17.10;99.90
8338;DHT22;4206;48.634;9.516;2023-08-24T04:13:06;17.00;99.90
8338;DHT22;4206;48.634;9.516;2023-08-24T04:15:33;16.70;99.90
8338;DHT22;4206;48.634;9.516;2023-08-24T04:18:00;15.50;99.90
8338;DHT22;4206;48.634;9.516;2023-08-24T04:20:27;15.50;99.90
8338;DHT22;4206;48.634;9.516;2023-08-24T04:22:55;17.10;99.90
8338;DHT22;4206;48.634;9.516;2023-08-24T04:25:23;16.90;99.90
8338;DHT22;4206;48.634;9.516;2023-08-24T04:27:49;16.00;99.90
8338;DHT22;4206;48.634;9.516;2023-08-24T04:30:17;17.30;99.90
8338;DHT22;4206;48.634;9.516;2023-08-24T04:32:44;16.40;99.90
8338;DHT22;4206;48.634;9.516;2023-08-24T04:35:11;17.40;99.90
8338;DHT22;4206;48.634;9.516;2023-08-24T04:37:38;16.50;99.90
8338;DHT22;4206;48.634;9.516;2023-08-24T04:40:06;17.20;99.90
8338;DHT22;4206;48.634;9.516;2023-08-24T04:42:34;16.10;99.90
8338;DHT22;4206;48.634;9.516;2023-08-24T04:45:01;17.60;99.90
8338;DHT22;4206;48.634;9.516;2023-08-24T04:47:28;16.90;99.90
8338;DHT22;4206;48.634;9.516;2023-08-24T04:49:55;16.90;99.90
8338;DHT22;4206;48.634;9.516;2023-08-24T04:52:22;16.30;99.90
8338;DHT22;4206;48.634;9.516;2023-08-24T04:54:53;17.40;99.90
8338;DHT22;4206;48.634;9.516;2023-08-24T04:57:20;16.30;99.90
8338;DHT22;4206;48.634;9.516;2023-08-24T04:59:51;18.10;99.90
8338;DHT22;4206;48.634;9.516;2023-08-24T05:02:45;17.30;99.90
8338;DHT22;4206;48.634;9.516;2023-08-24T05:05:12;17.60;99.90
8338;DHT22;4206;48.634;9.516;2023-08-24T05:07:41;16.10;99.90
8338;DHT22;4206;48.634;9.516;2023-08-24T05:10:08;20.20;99.90
8338;DHT22;4206;48.634;9.516;2023-08-24T05:12:35;20.50;99.90
8338;DHT22;4206;48.634;9.516;2023-08-24T05:15:03;16.70;99.90
8338;DHT22;4206;48.634;9.516;2023-08-24T05:17:31;17.70;99.90
8338;DHT22;4206;48.634;9.516;2023-08-24T05:19:59;18.70;99.90
8338;DHT22;4206;48.634;9.516;2023-08-24T05:22:26;15.80;99.90
8338;DHT22;4206;48.634;9.516;2023-08-24T05:24:53;16.70;99.90
8338;DHT22;4206;48.634;9.516;2023-08-24T05:27:21;18.00;99.90
8338;DHT22;4206;48.634;9.516;2023-08-24T05:29:48;17.60;99.90
8338;DHT22;4206;48.634;9.516;2023-08-24T05:32:15;17.00;99.90
8338;DHT22;4206;48.634;9.516;2023-08-24T05:34:42;16.30;99.90
8338;DHT22;4206;48.634;9.516;2023-08-24T05:37:10;17.70;99.90
8338;DHT22;4206;48.634;9.516;2023-08-24T05:39:37;15.10;99.90
8338;DHT22;4206;48.634;9.516;2023-08-24T05:42:06;18.50;99.90
8338;DHT22;4206;48.634;9.516;2023-08-24T05:44:33;19.00;99.90
8338;DHT22;4206;48.634;9.516;2023-08-24T05:47:01;16.50;99.90
8338;DHT22;4206;48.634;9.516;2023-08-24T05:49:28;20.10;99.90
8338;DHT22;4206;48.634;9.516;2023-08-24T05:51:57;16.20;99.90
8338;DHT22;4206;48.634;9.516;2023-08-24T05:54:25;19.30;99.90
8338;DHT22;4206;48.634;9.516;2023-08-24T05:56:52;17.80;99.90
8338;DHT22;4206;48.634;9.516;2023-08-24T05:59:20;16.10;99.90
8338;DHT22;4206;48.634;9.516;2023-08-24T06:01:47;19.80;99.90
8338;DHT22;4206;48.634;9.516;2023-08-24T06:04:15;20.00;99.90
8338;DHT22;4206;48.634;9.516;2023-08-24T06:06:42;17.70;99.90
8338;DHT22;4206;48.634;9.516;2023-08-24T06:09:10;18.50;99.90
8338;DHT22;4206;48.634;9.516;2023-08-24T06:11:37;17.30;99.90
8338;DHT22;4206;48.634;9.516;2023-08-24T06:14:05;18.70;99.90
8338;DHT22;4206;48.634;9.516;2023-08-24T06:16:34;20.00;99.90
8338;DHT22;4206;48.634;9.516;2023-08-24T06:19:01;20.20;99.90
8338;DHT22;4206;48.634;9.516;2023-08-24T06:21:29;21.00;99.90
8338;DHT22;4206;48.634;9.516;2023-08-24T06:23:57;18.50;99.90
8338;DHT22;4206;48.634;9.516;2023-08-24T06:26:24;21.40;99.90
8338;DHT22;4206;48.634;9.516;2023-08-24T06:28:51;21.10;99.90
8338;DHT22;4206;48.634;9.516;2023-08-24T06:31:20;21.70;99.90
8338;DHT22;4206;48.634;9.516;2023-08-24T06:33:59;19.10;99.90
8338;DHT22;4206;48.634;9.516;2023-08-24T06:36:26;20.50;99.90
8338;DHT22;4206;48.634;9.516;2023-08-24T06:38:57;21.40;99.90
8338;DHT22;4206;48.634;9.516;2023-08-24T06:41:26;21.70;99.90
8338;DHT22;4206;48.634;9.516;2023-08-24T06:43:53;22.50;99.90
8338;DHT22;4206;48.634;9.516;2023-08-24T06:46:20;23.60;99.90
8338;DHT22;4206;48.634;9.516;2023-08-24T06:48:48;21.20;99.90
8338;DHT22;4206;48.634;9.516;2023-08-24T06:51:15;22.40;99.90
8338;DHT22;4206;48.634;9.516;2023-08-24T06:53:43;22.20;99.90
8338;DHT22;4206;48.634;9.516;2023-08-24T06:56:10;22.20;99.90
8338;DHT22;4206;48.634;9.516;2023-08-24T06:58:37;22.10;99.90
8338;DHT22;4206;48.634;9.516;2023-08-24T07:01:05;22.10;99.90
8338;DHT22;4206;48.634;9.516;2023-08-24T07:03:33;23.00;99.90
8338;DHT22;4206;48.634;9.516;2023-08-24T07:06:01;21.80;99.90
8338;DHT22;4206;48.634;9.516;2023-08-24T07:08:28;23.10;99.90
8338;DHT22;4206;48.634;9.516;2023-08-24T07:10:55;20.50;99.90
8338;DHT22;4206;48.634;9.516;2023-08-24T07:13:23;23.10;99.90
8338;DHT22;4206;48.634;9.516;2023-08-24T07:15:50;22.80;99.90
8338;DHT22;4206;48.634;9.516;2023-08-24T07:18:18;21.90;99.90
8338;DHT22;4206;48.634;9.516;2023-08-24T07:20:45;21.50;99.90
8338;DHT22;4206;48.634;9.516;2023-08-24T07:23:11;21.90;99.90
8338;DHT22;4206;48.634;9.516;2023-08-24T07:25:39;21.90;99.90
8338;DHT22;4206;48.634;9.516;2023-08-24T07:28:06;22.30;99.90
8338;DHT22;4206;48.634;9.516;2023-08-24T07:30:35;21.90;99.90
8338;DHT22;4206;48.634;9.516;2023-08-24T07:33:02;21.50;99.90
8338;DHT22;4206;48.634;9.516;2023-08-24T07:35:30;22.40;99.90
8338;DHT22;4206;48.634;9.516;2023-08-24T07:37:59;22.60;99.90
8338;DHT22;4206;48.634;9.516;2023-08-24T07:40:31;22.90;99.90
8338;DHT22;4206;48.634;9.516;2023-08-24T07:42:58;22.90;99.90
8338;DHT22;4206;48.634;9.516;2023-08-24T07:45:26;23.20;99.90
8338;DHT22;4206;48.634;9.516;2023-08-24T07:47:54;23.40;99.90
8338;DHT22;4206;48.634;9.516;2023-08-24T07:50:22;24.20;99.90
8338;DHT22;4206;48.634;9.516;2023-08-24T07:52:49;24.20;99.90
8338;DHT22;4206;48.634;9.516;2023-08-24T07:55:16;24.40;99.90
8338;DHT22;4206;48.634;9.516;2023-08-24T07:57:43;24.30;99.90
8338;DHT22;4206;48.634;9.516;2023-08-24T08:00:11;25.30;99.90
8338;DHT22;4206;48.634;9.516;2023-08-24T08:02:41;25.50;99.90
8338;DHT22;4206;48.634;9.516;2023-08-24T08:05:08;26.00;99.90
8338;DHT22;4206;48.634;9.516;2023-08-24T08:07:37;26.10;99.90
8338;DHT22;4206;48.634;9.516;2023-08-24T08:10:04;26.00;99.90
8338;DHT22;4206;48.634;9.516;2023-08-24T08:12:32;26.00;99.90
8338;DHT22;4206;48.634;9.516;2023-08-24T08:15:00;26.60;99.90
8338;DHT22;4206;48.634;9.516;2023-08-24T08:17:28;26.90;99.90
8338;DHT22;4206;48.634;9.516;2023-08-24T08:19:57;28.00;99.90
8338;DHT22;4206;48.634;9.516;2023-08-24T08:22:25;28.40;99.90
8338;DHT22;4206;48.634;9.516;2023-08-24T08:24:53;28.90;99.90
8338;DHT22;4206;48.634;9.516;2023-08-24T08:27:23;29.40;99.90
8338;DHT22;4206;48.634;9.516;2023-08-24T08:29:50;29.70;99.90
8338;DHT22;4206;48.634;9.516;2023-08-24T08:32:18;30.50;99.90
8338;DHT22;4206;48.634;9.516;2023-08-24T08:34:45;31.10;99.90
8338;DHT22;4206;48.634;9.516;2023-08-24T08:37:13;31.90;99.90
8338;DHT22;4206;48.634;9.516;2023-08-24T08:39:41;32.60;99.90
8338;DHT22;4206;48.634;9.516;2023-08-24T08:42:14;32.80;99.90
8338;DHT22;4206;48.634;9.516;2023-08-24T08:44:45;33.10;99.90
8338;DHT22;4206;48.634;9.516;2023-08-24T08:47:17;33.40;99.90
8338;DHT22;4206;48.634;9.516;2023-08-24T08:52:24;34.50;99.90
8338;DHT22;4206;48.634;9.516;2023-08-24T08:55:12;35.10;99.90
8338;DHT22;4206;48.634;9.516;2023-08-24T08:57:48;35.30;99.90
8338;DHT22;4206;48.634;9.516;2023-08-24T09:00:17;35.80;99.90
8338;DHT22;4206;48.634;9.516;2023-08-24T09:02:45;36.60;99.90
8338;DHT22;4206;48.634;9.516;2023-08-24T09:05:15;35.80;99.80
8338;DHT22;4206;48.634;9.516;2023-08-24T09:07:56;37.50;99.90
8338;DHT22;4206;48.634;9.516;2023-08-24T09:10:26;37.60;99.30
8338;DHT22;4206;48.634;9.516;2023-08-24T09:13:01;37.30;99.40
8338;DHT22;4206;48.634;9.516;2023-08-24T09:15:34;37.80;99.50
8338;DHT22;4206;48.634;9.516;2023-08-24T09:18:02;38.00;99.00
8338;DHT22;4206;48.634;9.516;2023-08-24T09:20:31;38.00;98.70
8338;DHT22;4206;48.634;9.516;2023-08-24T09:22:58;38.70;97.80
8338;DHT22;4206;48.634;9.516;2023-08-24T09:25:26;38.60;98.10
8338;DHT22;4206;48.634;9.516;2023-08-24T09:28:04;39.10;97.10
8338;DHT22;4206;48.634;9.516;2023-08-24T09:30:35;39.20;96.40
8338;DHT22;4206;48.634;9.516;2023-08-24T09:33:09;38.90;96.70
8338;DHT22;4206;48.634;9.516;2023-08-24T09:35:37;38.40;96.80
8338;DHT22;4206;48.634;9.516;2023-08-24T09:38:20;38.90;97.00
8338;DHT22;4206;48.634;9.516;2023-08-24T09:40:51;39.40;96.10
8338;DHT22;4206;48.634;9.516;2023-08-24T09:43:32;39.90;96.40
8338;DHT22;4206;48.634;9.516;2023-08-24T09:45:59;40.80;95.00
8338;DHT22;4206;48.634;9.516;2023-08-24T09:48:26;41.30;94.40
8338;DHT22;4206;48.634;9.516;2023-08-24T09:50:57;42.60;92.60
8338;DHT22;4206;48.634;9.516;2023-08-24T09:53:24;41.60;93.30
8338;DHT22;4206;48.634;9.516;2023-08-24T09:56:00;40.90;94.10
8338;DHT22;4206;48.634;9.516;2023-08-24T09:58:28;41.90;92.50
8338;DHT22;4206;48.634;9.516;2023-08-24T10:00:56;41.10;93.50
8338;DHT22;4206;48.634;9.516;2023-08-24T10:03:26;42.30;92.80
8338;DHT22;4206;48.634;9.516;2023-08-24T10:05:55;43.20;91.60
8338;DHT22;4206;48.634;9.516;2023-08-24T10:08:37;41.80;92.10
8338;DHT22;4206;48.634;9.516;2023-08-24T10:11:06;42.20;91.90
8338;DHT22;4206;48.634;9.516;2023-08-24T10:14:00;42.50;90.70
8338;DHT22;4206;48.634;9.516;2023-08-24T10:16:30;42.20;92.10
8338;DHT22;4206;48.634;9.516;2023-08-24T10:18:58;42.30;91.90
8338;DHT22;4206;48.634;9.516;2023-08-24T10:21:27;43.00;91.20
8338;DHT22;4206;48.634;9.516;2023-08-24T10:23:57;43.00;91.70
8338;DHT22;4206;48.634;9.516;2023-08-24T10:26:25;43.40;91.10
8338;DHT22;4206;48.634;9.516;2023-08-24T10:28:53;43.80;90.80
8338;DHT22;4206;48.634;9.516;2023-08-24T10:31:24;42.60;90.60
8338;DHT22;4206;48.634;9.516;2023-08-24T10:33:52;43.60;90.90
8338;DHT22;4206;48.634;9.516;2023-08-24T10:36:22;44.70;90.10
8338;DHT22;4206;48.634;9.516;2023-08-24T10:38:50;43.70;90.00
8338;DHT22;4206;48.634;9.516;2023-08-24T10:44:05;44.40;88.10
8338;DHT22;4206;48.634;9.516;2023-08-24T10:47:06;43.00;90.00
8338;DHT22;4206;48.634;9.516;2023-08-24T10:49:58;43.60;89.40
8338;DHT22;4206;48.634;9.516;2023-08-24T10:52:30;44.00;88.40
8338;DHT22;4206;48.634;9.516;2023-08-24T10:55:05;43.60;88.40
8338;DHT22;4206;48.634;9.516;2023-08-24T10:58:19;43.90;88.60
8338;DHT22;4206;48.634;9.516;2023-08-24T11:00:48;43.00;88.60
8338;DHT22;4206;48.634;9.516;2023-08-24T11:03:37;42.60;88.20
8338;DHT22;4206;48.634;9.516;2023-08-24T11:06:18;43.60;89.50
8338;DHT22;4206;48.634;9.516;2023-08-24T11:09:04;44.40;85.30
8338;DHT22;4206;48.634;9.516;2023-08-24T11:11:41;44.30;84.90
8338;DHT22;4206;48.634;9.516;2023-08-24T11:14:25;44.00;83.80
8338;DHT22;4206;48.634;9.516;2023-08-24T11:16:57;43.70;82.20
8338;DHT22;4206;48.634;9.516;2023-08-24T11:19:25;43.50;83.00
8338;DHT22;4206;48.634;9.516;2023-08-24T11:21:52;42.20;83.50
8338;DHT22;4206;48.634;9.516;2023-08-24T11:24:20;42.30;84.20
8338;DHT22;4206;48.634;9.516;2023-08-24T11:26:48;42.40;83.20
8338;DHT22;4206;48.634;9.516;2023-08-24T11:29:15;42.60;82.80
8338;DHT22;4206;48.634;9.516;2023-08-24T11:31:45;42.90;81.30
8338;DHT22;4206;48.634;9.516;2023-08-24T11:34:19;42.60;82.50
8338;DHT22;4206;48.634;9.516;2023-08-24T11:36:47;42.40;81.80
8338;DHT22;4206;48.634;9.516;2023-08-24T11:39:18;42.20;81.70
8338;DHT22;4206;48.634;9.516;2023-08-24T11:42:05;42.20;81.10
8338;DHT22;4206;48.634;9.516;2023-08-24T11:44:48;42.10;80.70
8338;DHT22;4206;48.634;9.516;2023-08-24T11:47:15;42.20;81.30
8338;DHT22;4206;48.634;9.516;2023-08-24T11:49:42;42.30;81.30
8338;DHT22;4206;48.634;9.516;2023-08-24T11:52:09;41.90;81.60
8338;DHT22;4206;48.634;9.516;2023-08-24T11:54:36;42.20;82.00
8338;DHT22;4206;48.634;9.516;2023-08-24T11:57:07;41.30;83.30
8338;DHT22;4206;48.634;9.516;2023-08-24T11:59:36;41.50;83.30
8338;DHT22;4206;48.634;9.516;2023-08-24T12:02:04;41.60;82.60
8338;DHT22;4206;48.634;9.516;2023-08-24T12:04:40;41.90;82.60
8338;DHT22;4206;48.634;9.516;2023-08-24T12:07:11;42.40;80.70
8338;DHT22;4206;48.634;9.516;2023-08-24T12:09:40;42.20;81.10
8338;DHT22;4206;48.634;9.516;2023-08-24T12:12:12;42.80;80.80
8338;DHT22;4206;48.634;9.516;2023-08-24T12:14:41;42.90;81.00
8338;DHT22;4206;48.634;9.516;2023-08-24T12:17:10;43.30;79.70
8338;DHT22;4206;48.634;9.516;2023-08-24T12:19:38;43.70;78.10
8338;DHT22;4206;48.634;9.516;2023-08-24T12:22:13;43.10;77.70
8338;DHT22;4206;48.634;9.516;2023-08-24T12:24:44;42.30;79.00
8338;DHT22;4206;48.634;9.516;2023-08-24T12:27:27;42.10;79.80
8338;DHT22;4206;48.634;9.516;2023-08-24T12:29:54;43.40;77.80
8338;DHT22;4206;48.634;9.516;2023-08-24T12:32:21;43.40;77.60
8338;DHT22;4206;48.634;9.516;2023-08-24T12:34:52;43.70;76.90
8338;DHT22;4206;48.634;9.516;2023-08-24T12:37:21;44.00;75.70
8338;DHT22;4206;48.634;9.516;2023-08-24T12:39:48;43.30;76.20
8338;DHT22;4206;48.634;9.516;2023-08-24T12:42:15;43.10;75.90
8338;DHT22;4206;48.634;9.516;2023-08-24T12:44:42;42.60;76.30
8338;DHT22;4206;48.634;9.516;2023-08-24T12:47:09;41.70;77.30
8338;DHT22;4206;48.634;9.516;2023-08-24T12:49:36;41.50;76.80
8338;DHT22;4206;48.634;9.516;2023-08-24T12:52:03;41.80;76.50
8338;DHT22;4206;48.634;9.516;2023-08-24T12:54:30;42.70;76.40
8338;DHT22;4206;48.634;9.516;2023-08-24T12:56:57;43.80;74.50
8338;DHT22;4206;48.634;9.516;2023-08-24T12:59:24;44.00;74.50
8338;DHT22;4206;48.634;9.516;2023-08-24T13:01:54;44.50;72.70
8338;DHT22;4206;48.634;9.516;2023-08-24T13:04:21;43.70;73.20
8338;DHT22;4206;48.634;9.516;2023-08-24T13:06:47;43.20;74.90
8338;DHT22;4206;48.634;9.516;2023-08-24T13:09:14;43.30;74.60
8338;DHT22;4206;48.634;9.516;2023-08-24T13:11:41;43.70;73.30
8338;DHT22;4206;48.634;9.516;2023-08-24T13:14:08;43.50;73.60
8338;DHT22;4206;48.634;9.516;2023-08-24T13:16:35;43.10;74.70
8338;DHT22;4206;48.634;9.516;2023-08-24T13:19:02;42.70;74.40
8338;DHT22;4206;48.634;9.516;2023-08-24T13:21:29;42.30;75.50
8338;DHT22;4206;48.634;9.516;2023-08-24T13:23:56;42.30;74.80
8338;DHT22;4206;48.634;9.516;2023-08-24T13:26:23;42.50;74.50
8338;DHT22;4206;48.634;9.516;2023-08-24T13:28:50;42.30;75.50
8338;DHT22;4206;48.634;9.516;2023-08-24T13:31:18;43.00;74.30
8338;DHT22;4206;48.634;9.516;2023-08-24T13:33:45;43.40;73.70
8338;DHT22;4206;48.634;9.516;2023-08-24T13:36:12;43.90;73.70
8338;DHT22;4206;48.634;9.516;2023-08-24T13:38:39;43.80;72.90
8338;DHT22;4206;48.634;9.516;2023-08-24T13:41:07;42.60;73.20
8338;DHT22;4206;48.634;9.516;2023-08-24T13:43:33;43.10;72.70
8338;DHT22;4206;48.634;9.516;2023-08-24T13:46:01;42.70;72.70
8338;DHT22;4206;48.634;9.516;2023-08-24T13:48:30;42.70;72.90
8338;DHT22;4206;48.634;9.516;2023-08-24T13:51:00;42.00;72.30
8338;DHT22;4206;48.634;9.516;2023-08-24T13:53:28;40.80;74.40
8338;DHT22;4206;48.634;9.516;2023-08-24T13:55:55;39.90;75.20
8338;DHT22;4206;48.634;9.516;2023-08-24T13:58:21;38.60;76.70
8338;DHT22;4206;48.634;9.516;2023-08-24T14:00:55;37.90;77.90
8338;DHT22;4206;48.634;9.516;2023-08-24T14:03:22;38.40;77.60
8338;DHT22;4206;48.634;9.516;2023-08-24T14:05:54;39.40;76.70
8338;DHT22;4206;48.634;9.516;2023-08-24T14:08:21;39.90;77.10
8338;DHT22;4206;48.634;9.516;2023-08-24T14:10:48;40.70;76.60
8338;DHT22;4206;48.634;9.516;2023-08-24T14:13:15;40.90;76.50
8338;DHT22;4206;48.634;9.516;2023-08-24T14:15:42;40.90;76.80
8338;DHT22;4206;48.634;9.516;2023-08-24T14:18:11;41.00;76.00
8338;DHT22;4206;48.634;9.516;2023-08-24T14:20:39;40.70;76.30
8338;DHT22;4206;48.634;9.516;2023-08-24T14:23:06;39.90;77.40
8338;DHT22;4206;48.634;9.516;2023-08-24T14:25:33;39.00;78.40
8338;DHT22;4206;48.634;9.516;2023-08-24T14:28:00;37.80;80.20
8338;DHT22;4206;48.634;9.516;2023-08-24T14:30:32;37.10;82.10
8338;DHT22;4206;48.634;9.516;2023-08-24T14:32:59;36.60;83.70
8338;DHT22;4206;48.634;9.516;2023-08-24T14:35:26;35.90;84.50
8338;DHT22;4206;48.634;9.516;2023-08-24T14:37:54;35.70;85.10
8338;DHT22;4206;48.634;9.516;2023-08-24T14:40:22;35.80;85.50
8338;DHT22;4206;48.634;9.516;2023-08-24T14:42:49;35.90;84.70
8338;DHT22;4206;48.634;9.516;2023-08-24T14:45:16;35.70;91.00
8338;DHT22;4206;48.634;9.516;2023-08-24T14:47:45;35.40;91.60
8338;DHT22;4206;48.634;9.516;2023-08-24T14:50:12;35.00;90.60
8338;DHT22;4206;48.634;9.516;2023-08-24T14:52:40;35.00;91.40
8338;DHT22;4206;48.634;9.516;2023-08-24T14:55:07;35.10;88.80
8338;DHT22;4206;48.634;9.516;2023-08-24T14:57:36;35.00;85.80
8338;DHT22;4206;48.634;9.516;2023-08-24T15:00:03;34.60;88.20
8338;DHT22;4206;48.634;9.516;2023-08-24T15:02:32;34.60;87.20
8338;DHT22;4206;48.634;9.516;2023-08-24T15:04:59;34.80;88.00
8338;DHT22;4206;48.634;9.516;2023-08-24T15:07:27;34.90;87.30
8338;DHT22;4206;48.634;9.516;2023-08-24T15:09:54;34.80;88.40
8338;DHT22;4206;48.634;9.516;2023-08-24T15:12:21;34.80;87.50
8338;DHT22;4206;48.634;9.516;2023-08-24T15:15:04;34.60;87.80
8338;DHT22;4206;48.634;9.516;2023-08-24T15:17:31;34.20;90.90
8338;DHT22;4206;48.634;9.516;2023-08-24T15:19:58;34.10;90.20
8338;DHT22;4206;48.634;9.516;2023-08-24T15:22:25;34.00;91.60
8338;DHT22;4206;48.634;9.516;2023-08-24T15:24:55;33.80;92.20
8338;DHT22;4206;48.634;9.516;2023-08-24T15:27:22;33.60;92.10
8338;DHT22;4206;48.634;9.516;2023-08-24T15:29:49;33.50;91.50
8338;DHT22;4206;48.634;9.516;2023-08-24T15:32:18;33.30;91.30
8338;DHT22;4206;48.634;9.516;2023-08-24T15:34:46;33.20;91.80
8338;DHT22;4206;48.634;9.516;2023-08-24T15:37:13;33.20;92.10
8338;DHT22;4206;48.634;9.516;2023-08-24T15:39:40;32.80;93.20
8338;DHT22;4206;48.634;9.516;2023-08-24T15:42:07;32.40;94.70
8338;DHT22;4206;48.634;9.516;2023-08-24T15:44:34;31.70;95.90
8338;DHT22;4206;48.634;9.516;2023-08-24T15:47:01;31.30;96.80
8338;DHT22;4206;48.634;9.516;2023-08-24T15:49:28;31.00;97.50
8338;DHT22;4206;48.634;9.516;2023-08-24T15:51:55;30.70;97.80
8338;DHT22;4206;48.634;9.516;2023-08-24T15:54:22;30.40;98.40
8338;DHT22;4206;48.634;9.516;2023-08-24T15:56:52;30.20;98.70
8338;DHT22;4206;48.634;9.516;2023-08-24T15:59:21;30.00;99.50
8338;DHT22;4206;48.634;9.516;2023-08-24T16:01:48;29.70;99.80
8338;DHT22;4206;48.634;9.516;2023-08-24T16:04:15;29.70;99.90
8338;DHT22;4206;48.634;9.516;2023-08-24T16:06:43;29.50;99.90
8338;DHT22;4206;48.634;9.516;2023-08-24T16:09:10;29.30;99.90
8338;DHT22;4206;48.634;9.516;2023-08-24T16:11:37;29.30;99.90
8338;DHT22;4206;48.634;9.516;2023-08-24T16:14:04;29.10;99.80
8338;DHT22;4206;48.634;9.516;2023-08-24T16:16:31;29.00;99.70
8338;DHT22;4206;48.634;9.516;2023-08-24T16:19:00;28.90;99.60
8338;DHT22;4206;48.634;9.516;2023-08-24T16:21:28;29.00;99.40
8338;DHT22;4206;48.634;9.516;2023-08-24T16:23:56;29.00;99.50
8338;DHT22;4206;48.634;9.516;2023-08-24T16:26:24;29.10;99.10
8338;DHT22;4206;48.634;9.516;2023-08-24T16:28:51;29.00;99.10
8338;DHT22;4206;48.634;9.516;2023-08-24T16:31:19;29.10;98.60